Airfield :
LOGIN :

Register | Disclaimer

   EN    FR    IT 

 










Legend :    VFR   Marginal VFR   IFR   Intensive IFR   Very Intensive IFR
Visi :
Ceiling :
>= 8 km
>= 3000ft
5 to 8 km
1000 to 3000 ft
1500m to 5 km
500 to 1000 ft
800 to 1500m
200 to 500 ft
< 800m
< 200 ft
Symbols :   Thunderstorms  Fog  Heavy snow  Heavy precipitations  Wind > 20 kt
SIGMETs :     Misc.  Thunderstorms  Icing  Turbulence  Mountain Waves  Volcanic Ashes






- Airport Elevation : 681 ft
- IATA code : OSL


ENGM - Oslo Gardermoen

CURRENT METAR :
  • 270750Z 02005KT 320V070 9999 -RA SCT006 BKN012 10/09 Q1020 TEMPO BKN006

EXPIRED METARs :
  • 270720Z 03003KT 350V080 7000 -DZ SCT007 BKN010 10/08 Q1020 TEMPO 4000 -DZRA BR BKN006
  • 270650Z VRB01KT 9999 SCT008 BKN010 09/08 Q1020 TEMPO BKN008
  • 270620Z VRB04KT 9999 FEW011 BKN034 09/08 Q1020 TEMPO BKN010
  • 270550Z 05003KT 9999 SCT015 BKN033 09/08 Q1020 NOSIG
  • 270520Z VRB03KT 9999 BKN033 09/08 Q1020 NOSIG

TAF TAF ENGM
Valid from the 27 at 06:00 until the 28 at 06:00 UTC


2706/2806 05008KT 9999 -RA BKN025
BECMG 2706/2708 SCT004 BKN012
TEMPO 2708/2714 4000 -RADZ BR OVC004
BECMG 2714/2716 12012KT RA
TEMPO 2716/2806 2500 SHRA BR BKN004 SCT015CB



MET'MAP, your aeronautical weather chart ! - Copyright ORBIFLY December 2007 - Disclaimer

ORBIFLY MET'MAP TEAM :

Programming & Development : Alexandra Zaïnal
Concept & original design : Baudouin d'Aumeries
Assistance for programming : Marc-Olivier Méhu
Technical & hardware support : Manuel Goepfert

Contact : metmap@orbifly.com




SOURCES & CREDITS :

   NOAA